createdAt,value
2022-08-17T00:01:52.607Z,94.60
2022-08-17T00:04:22.548Z,94.70
2022-08-17T00:06:51.107Z,94.60
2022-08-17T00:09:19.639Z,94.40
2022-08-17T00:12:40.866Z,94.20
2022-08-17T00:14:37.674Z,94.00
2022-08-17T00:17:06.517Z,94.30
2022-08-17T00:19:36.003Z,94.40
2022-08-17T00:22:31.088Z,94.10
2022-08-17T00:24:55.253Z,93.80
2022-08-17T00:27:23.480Z,93.70
2022-08-17T00:29:52.010Z,94.00
2022-08-17T00:33:14.716Z,94.00
2022-08-17T00:35:12.328Z,93.90
2022-08-17T00:37:40.793Z,93.60
2022-08-17T00:40:11.667Z,93.60
2022-08-17T00:42:40.551Z,93.20
2022-08-17T00:45:12.510Z,93.80
2022-08-17T00:47:41.682Z,93.60
2022-08-17T00:50:14.543Z,94.10
2022-08-17T00:52:49.007Z,94.50
2022-08-17T00:55:17.243Z,94.50
2022-08-17T00:57:54.653Z,94.30
2022-08-17T01:00:26.995Z,94.10
2022-08-17T01:03:00.193Z,93.80
2022-08-17T01:05:33.004Z,93.70
2022-08-17T01:08:02.983Z,93.60
2022-08-17T01:11:00.628Z,93.40
2022-08-17T01:13:25.977Z,93.30
2022-08-17T01:16:00.405Z,93.40
2022-08-17T01:18:29.096Z,93.50
2022-08-17T01:21:04.345Z,93.80
2022-08-17T01:23:34.053Z,94.00
2022-08-17T01:26:05.512Z,93.80
2022-08-17T01:28:55.110Z,93.90
2022-08-17T01:31:25.726Z,94.00
2022-08-17T01:33:54.102Z,93.40
2022-08-17T01:36:22.920Z,94.10
2022-08-17T01:38:52.483Z,94.50
2022-08-17T01:41:23.105Z,94.50
2022-08-17T01:43:55.153Z,94.50
2022-08-17T01:46:27.111Z,94.10
2022-08-17T01:48:57.591Z,94.00
2022-08-17T01:51:27.371Z,93.50
2022-08-17T01:54:00.169Z,93.80
2022-08-17T01:56:31.416Z,94.10
2022-08-17T01:58:59.498Z,94.40
2022-08-17T02:01:31.585Z,94.70
2022-08-17T02:04:01.352Z,94.80
2022-08-17T02:06:52.946Z,94.90
2022-08-17T02:09:23.267Z,95.00
2022-08-17T02:11:54.284Z,95.10
2022-08-17T02:14:23.407Z,95.20
2022-08-17T02:16:51.905Z,95.20
2022-08-17T02:19:21.947Z,95.20
2022-08-17T02:21:53.174Z,95.20
2022-08-17T02:25:01.292Z,95.40
2022-08-17T02:27:14.951Z,95.40
2022-08-17T02:29:43.073Z,95.40
2022-08-17T02:32:27.246Z,95.50
2022-08-17T02:34:56.795Z,95.40
2022-08-17T02:37:25.513Z,94.60
2022-08-17T02:39:57.059Z,94.80
2022-08-17T02:42:30.067Z,95.20
2022-08-17T02:44:58.345Z,95.40
2022-08-17T02:47:26.829Z,95.40
2022-08-17T02:49:55.839Z,95.70
2022-08-17T02:53:01.683Z,95.40
2022-08-17T02:55:19.307Z,95.60
2022-08-17T02:57:47.973Z,95.80
2022-08-17T03:00:19.193Z,95.90
2022-08-17T03:02:47.368Z,95.90
2022-08-17T03:05:17.647Z,95.80
2022-08-17T03:07:45.915Z,95.80
2022-08-17T03:10:16.447Z,96.20
2022-08-17T03:12:45.755Z,96.40
2022-08-17T03:15:16.574Z,96.50
2022-08-17T03:17:45.022Z,96.50
2022-08-17T03:20:14.520Z,96.40
2022-08-17T03:22:47.985Z,96.70
2022-08-17T03:25:26.587Z,96.90
2022-08-17T03:27:55.366Z,97.00
2022-08-17T03:30:24.505Z,97.00
2022-08-17T03:32:55.772Z,97.00
2022-08-17T03:35:26.033Z,97.00
2022-08-17T03:38:00.740Z,97.10
2022-08-17T03:40:55.890Z,97.10
2022-08-17T03:43:21.427Z,97.10
2022-08-17T03:46:10.874Z,97.10
2022-08-17T03:49:13.132Z,97.20
2022-08-17T03:51:58.831Z,97.20
2022-08-17T03:54:44.707Z,97.20
2022-08-17T03:57:14.389Z,97.30
2022-08-17T03:59:42.762Z,97.30
2022-08-17T04:02:15.302Z,97.50
2022-08-17T04:04:43.448Z,97.60
2022-08-17T04:07:11.760Z,97.90
2022-08-17T04:09:39.858Z,97.60
2022-08-17T04:12:08.220Z,97.60
2022-08-17T04:14:51.976Z,97.50
2022-08-17T04:17:23.052Z,97.60
2022-08-17T04:19:51.226Z,97.70
2022-08-17T04:22:32.868Z,97.80
2022-08-17T04:25:09.178Z,97.90
2022-08-17T04:27:37.446Z,97.90
2022-08-17T04:30:08.428Z,98.00
2022-08-17T04:33:19.178Z,97.90
2022-08-17T04:35:45.181Z,98.00
2022-08-17T04:38:16.688Z,97.70
2022-08-17T04:41:03.103Z,97.60
2022-08-17T04:43:33.114Z,97.30
2022-08-17T04:46:05.769Z,97.20
2022-08-17T04:48:37.374Z,97.40
2022-08-17T04:51:09.995Z,97.90
2022-08-17T04:53:39.714Z,98.40
2022-08-17T04:56:11.688Z,98.30
2022-08-17T04:58:44.998Z,98.40
2022-08-17T05:01:14.760Z,97.90
2022-08-17T05:03:43.156Z,97.80
2022-08-17T05:06:11.778Z,97.40
2022-08-17T05:08:39.939Z,97.80
2022-08-17T05:11:08.326Z,97.80
2022-08-17T05:13:36.396Z,97.80
2022-08-17T05:16:05.577Z,98.30
2022-08-17T05:18:35.039Z,98.80
2022-08-17T05:21:04.008Z,99.30
2022-08-17T05:23:41.993Z,99.40
2022-08-17T05:26:23.123Z,99.70
2022-08-17T05:28:55.381Z,99.90
2022-08-17T05:31:25.569Z,99.90
2022-08-17T05:33:55.072Z,99.90
2022-08-17T05:36:43.063Z,99.80
2022-08-17T05:39:17.073Z,99.80
2022-08-17T05:41:47.723Z,99.90
2022-08-17T05:44:18.206Z,99.50
2022-08-17T05:46:51.741Z,99.20
2022-08-17T05:49:28.250Z,99.10
2022-08-17T05:52:19.858Z,99.20
2022-08-17T05:54:58.580Z,99.40
2022-08-17T05:57:49.669Z,99.70
2022-08-17T06:00:30.086Z,99.70
2022-08-17T06:03:16.994Z,99.50
2022-08-17T06:06:05.942Z,98.60
2022-08-17T06:08:39.610Z,98.60
2022-08-17T06:11:16.117Z,98.60
2022-08-17T06:14:14.562Z,98.50
2022-08-17T06:16:47.446Z,98.20
2022-08-17T06:19:20.921Z,98.00
2022-08-17T06:21:53.998Z,97.40
2022-08-17T06:24:30.534Z,96.90
2022-08-17T06:27:07.686Z,96.90
2022-08-17T06:29:43.960Z,96.90
2022-08-17T06:32:14.465Z,96.80
2022-08-17T06:34:44.784Z,96.60
2022-08-17T06:37:41.410Z,96.60
2022-08-17T06:40:36.945Z,96.20
2022-08-17T06:43:25.309Z,96.20
2022-08-17T06:46:01.817Z,95.90
2022-08-17T06:48:37.534Z,94.60
2022-08-17T06:51:15.725Z,94.70
2022-08-17T06:53:49.504Z,94.80
2022-08-17T06:56:27.066Z,94.80
2022-08-17T06:59:20.689Z,94.60
2022-08-17T07:01:53.262Z,94.40
2022-08-17T07:04:26.651Z,94.00
2022-08-17T07:06:59.104Z,93.60
2022-08-17T07:09:35.067Z,93.20
2022-08-17T07:12:11.083Z,93.00
2022-08-17T07:14:41.200Z,92.70
2022-08-17T07:17:12.137Z,92.80
2022-08-17T07:19:44.115Z,92.50
2022-08-17T07:22:22.921Z,92.60
2022-08-17T07:24:57.255Z,92.40
2022-08-17T07:27:28.526Z,92.20
2022-08-17T07:30:03.749Z,92.10
2022-08-17T07:32:37.559Z,91.90
2022-08-17T07:35:16.416Z,91.80
2022-08-17T07:37:49.123Z,90.90
2022-08-17T07:40:23.594Z,90.80
2022-08-17T07:43:23.330Z,91.20
2022-08-17T07:46:35.677Z,90.60
2022-08-17T07:49:37.821Z,90.50
2022-08-17T07:52:24.960Z,90.20
2022-08-17T07:54:57.892Z,90.00
2022-08-17T07:57:38.392Z,89.00
2022-08-17T08:00:30.839Z,89.00
2022-08-17T08:03:21.828Z,88.00
2022-08-17T08:05:55.357Z,87.90
2022-08-17T08:08:29.157Z,87.10
2022-08-17T08:11:03.948Z,86.80
2022-08-17T08:13:34.385Z,85.50
2022-08-17T08:16:20.903Z,85.60
2022-08-17T08:18:55.970Z,84.80
2022-08-17T08:21:34.303Z,85.00
2022-08-17T08:24:14.433Z,85.20
2022-08-17T08:26:50.552Z,85.00
2022-08-17T08:29:30.323Z,84.10
2022-08-17T08:32:04.737Z,84.10
2022-08-17T08:35:01.096Z,84.80
2022-08-17T08:37:43.082Z,84.70
2022-08-17T08:40:26.255Z,83.90
2022-08-17T08:43:04.051Z,83.60
2022-08-17T08:45:48.029Z,84.00
2022-08-17T08:48:53.835Z,83.10
2022-08-17T08:51:22.401Z,83.00
2022-08-17T08:53:59.233Z,82.90
2022-08-17T08:56:38.410Z,82.50
2022-08-17T08:59:17.553Z,82.90
2022-08-17T09:01:56.277Z,82.30
2022-08-17T09:05:12.807Z,81.80
2022-08-17T09:07:44.913Z,82.40
2022-08-17T09:10:19.727Z,82.30
2022-08-17T09:12:54.846Z,82.90
2022-08-17T09:15:28.087Z,82.30
2022-08-17T09:19:01.292Z,82.70
2022-08-17T09:20:57.834Z,82.80
2022-08-17T09:23:34.054Z,82.30
2022-08-17T09:26:08.107Z,82.90
2022-08-17T09:28:38.380Z,84.10
2022-08-17T09:31:10.351Z,83.30
2022-08-17T09:33:51.324Z,82.70
2022-08-17T09:36:24.237Z,83.20
2022-08-17T09:38:59.014Z,82.90
2022-08-17T09:41:34.587Z,82.20
2022-08-17T09:44:22.592Z,82.10
2022-08-17T09:46:55.417Z,81.50
2022-08-17T09:49:31.558Z,80.30
2022-08-17T09:52:04.081Z,79.50
2022-08-17T09:54:39.889Z,78.50
2022-08-17T09:57:31.475Z,78.40
2022-08-17T10:00:16.868Z,77.90
2022-08-17T10:03:11.910Z,76.60
2022-08-17T10:05:47.210Z,76.90
2022-08-17T10:08:24.291Z,75.20
2022-08-17T10:11:06.963Z,75.00
2022-08-17T10:13:52.752Z,74.40
2022-08-17T10:16:27.186Z,73.20
2022-08-17T10:19:08.185Z,73.60
2022-08-17T10:22:00.924Z,73.30
2022-08-17T10:25:23.739Z,74.00
2022-08-17T10:27:56.638Z,71.70
2022-08-17T10:30:27.794Z,72.10
2022-08-17T10:32:59.243Z,72.50
2022-08-17T10:35:34.070Z,71.50
2022-08-17T10:38:32.479Z,71.60
2022-08-17T10:41:06.217Z,71.30
2022-08-17T10:43:55.760Z,71.30
2022-08-17T10:46:52.206Z,71.10
2022-08-17T10:49:30.427Z,70.60
2022-08-17T10:52:00.113Z,70.90
2022-08-17T10:54:47.653Z,70.60
2022-08-17T10:57:40.867Z,71.30
2022-08-17T11:00:16.011Z,71.40
2022-08-17T11:02:49.574Z,71.90
2022-08-17T11:05:43.671Z,72.00
2022-08-17T11:08:32.161Z,71.60
2022-08-17T11:11:14.881Z,72.60
2022-08-17T11:13:51.688Z,73.10
2022-08-17T11:16:41.996Z,72.00
2022-08-17T11:19:39.418Z,73.20
2022-08-17T11:22:44.456Z,72.20
2022-08-17T11:25:17.760Z,71.80
2022-08-17T11:27:54.287Z,69.90
2022-08-17T11:30:48.587Z,71.10
2022-08-17T11:33:57.800Z,70.50
2022-08-17T11:36:47.761Z,70.30
2022-08-17T11:39:40.861Z,69.40
2022-08-17T11:42:21.550Z,69.70
2022-08-17T11:44:57.425Z,68.80
2022-08-17T11:48:15.951Z,69.00
2022-08-17T11:51:05.598Z,68.10
2022-08-17T11:56:59.208Z,69.50
2022-08-17T11:59:58.621Z,69.20
2022-08-17T12:02:47.506Z,66.60
2022-08-17T12:05:33.002Z,67.00
2022-08-17T12:08:22.061Z,67.30
2022-08-17T12:10:59.289Z,66.80
2022-08-17T12:13:38.488Z,64.90
2022-08-17T12:16:10.360Z,66.40
2022-08-17T12:18:39.705Z,65.20
2022-08-17T12:21:23.288Z,65.40
2022-08-17T12:23:58.445Z,63.80
2022-08-17T12:26:30.408Z,64.80
2022-08-17T12:29:01.941Z,65.10
2022-08-17T12:31:36.317Z,63.70
2022-08-17T12:34:05.805Z,62.90
2022-08-17T12:36:34.842Z,62.40
2022-08-17T12:39:14.302Z,61.50
2022-08-17T12:41:46.923Z,61.70
2022-08-17T12:44:19.117Z,62.10
2022-08-17T12:46:54.459Z,62.10
2022-08-17T12:49:33.352Z,61.60
2022-08-17T12:52:10.033Z,60.60
2022-08-17T12:54:50.527Z,59.50
2022-08-17T12:57:23.719Z,57.60
2022-08-17T12:59:58.619Z,57.70
2022-08-17T13:02:39.795Z,58.30
2022-08-17T13:05:17.346Z,57.70
2022-08-17T13:07:46.818Z,57.60
2022-08-17T13:10:19.963Z,57.40
2022-08-17T13:12:50.981Z,57.10
2022-08-17T13:15:23.194Z,56.20
2022-08-17T13:18:04.060Z,56.70
2022-08-17T13:20:32.723Z,57.00
2022-08-17T13:23:07.524Z,59.00
2022-08-17T13:25:40.272Z,57.80
2022-08-17T13:28:18.910Z,56.70
2022-08-17T13:31:24.081Z,58.30
2022-08-17T13:33:53.558Z,58.10
2022-08-17T13:36:30.081Z,59.00
2022-08-17T13:39:08.626Z,58.20
2022-08-17T13:41:39.162Z,59.00
2022-08-17T13:44:30.897Z,58.10
2022-08-17T13:47:00.671Z,57.80
2022-08-17T13:49:41.814Z,58.70
2022-08-17T13:52:36.353Z,58.80
2022-08-17T13:55:10.102Z,57.70
2022-08-17T13:57:38.477Z,58.10
2022-08-17T14:00:17.314Z,57.30
2022-08-17T14:02:45.441Z,57.60
2022-08-17T14:05:14.965Z,57.80
2022-08-17T14:07:43.223Z,57.50
2022-08-17T14:10:15.691Z,57.50
2022-08-17T14:12:45.758Z,57.20
2022-08-17T14:15:16.373Z,57.60
2022-08-17T14:17:44.771Z,58.00
2022-08-17T14:20:15.487Z,58.00
2022-08-17T14:22:46.568Z,58.40
2022-08-17T14:25:16.593Z,58.30
2022-08-17T14:27:52.142Z,58.20
2022-08-17T14:30:24.271Z,58.00
2022-08-17T14:32:53.158Z,58.00
2022-08-17T14:35:25.450Z,57.10
2022-08-17T14:37:54.242Z,56.60
2022-08-17T14:40:24.671Z,55.60
2022-08-17T14:42:55.174Z,54.80
2022-08-17T14:45:29.979Z,54.80
2022-08-17T14:48:04.171Z,55.50
2022-08-17T14:50:35.504Z,55.40
2022-08-17T14:53:05.200Z,54.90
2022-08-17T14:55:33.523Z,54.20
2022-08-17T14:58:01.693Z,54.10
2022-08-17T15:00:29.820Z,54.70
2022-08-17T15:03:02.009Z,55.10
2022-08-17T15:05:33.686Z,56.00
2022-08-17T15:08:04.646Z,56.70
2022-08-17T15:10:33.767Z,56.90
2022-08-17T15:13:02.485Z,56.40
2022-08-17T15:15:31.580Z,57.00
2022-08-17T15:18:01.034Z,55.50
2022-08-17T15:20:30.940Z,56.20
2022-08-17T15:22:59.751Z,57.00
2022-08-17T15:25:31.905Z,56.50
2022-08-17T15:28:01.265Z,56.60
2022-08-17T15:30:30.322Z,57.30
2022-08-17T15:33:02.219Z,56.00
2022-08-17T15:35:34.186Z,56.10
2022-08-17T15:38:10.655Z,56.30
2022-08-17T15:40:45.192Z,56.20
2022-08-17T15:43:15.871Z,56.60
2022-08-17T15:45:44.346Z,56.80
2022-08-17T15:48:14.732Z,56.80
2022-08-17T15:50:43.360Z,56.90
2022-08-17T15:53:11.451Z,57.80
2022-08-17T15:55:43.982Z,57.50
2022-08-17T15:58:12.101Z,57.80
2022-08-17T16:00:53.188Z,56.10
2022-08-17T16:03:59.314Z,55.40
2022-08-17T16:06:18.426Z,54.80
2022-08-17T16:08:46.523Z,55.20
2022-08-17T16:11:18.843Z,55.60
2022-08-17T16:13:54.718Z,55.20
2022-08-17T16:16:24.630Z,54.80
2022-08-17T16:18:54.748Z,54.90
2022-08-17T16:21:29.632Z,55.20
2022-08-17T16:24:02.867Z,56.00
2022-08-17T16:26:34.045Z,56.50
2022-08-17T16:29:05.072Z,56.90
2022-08-17T16:31:36.001Z,57.00
2022-08-17T16:34:18.000Z,57.70
2022-08-17T16:36:55.150Z,57.90
2022-08-17T16:39:25.639Z,57.50
2022-08-17T16:41:55.995Z,57.50
2022-08-17T16:44:24.723Z,57.40
2022-08-17T16:46:53.420Z,57.30
2022-08-17T16:49:36.259Z,58.00
2022-08-17T16:52:07.862Z,58.20
2022-08-17T16:54:38.301Z,58.00
2022-08-17T16:57:07.899Z,57.90
2022-08-17T16:59:41.893Z,57.50
2022-08-17T17:02:14.310Z,57.80
2022-08-17T17:04:50.694Z,58.50
2022-08-17T17:07:35.429Z,58.90
2022-08-17T17:10:06.900Z,59.10
2022-08-17T17:13:02.329Z,58.90
2022-08-17T17:15:33.581Z,59.30
2022-08-17T17:18:07.239Z,58.70
2022-08-17T17:20:43.779Z,60.60
2022-08-17T17:23:19.749Z,61.10
2022-08-17T17:25:58.342Z,62.60
2022-08-17T17:28:38.347Z,61.90
2022-08-17T17:31:11.855Z,63.00
2022-08-17T17:33:47.778Z,62.00
2022-08-17T17:36:25.395Z,64.30
2022-08-17T17:38:57.294Z,64.90
2022-08-17T17:41:31.759Z,64.10
2022-08-17T17:44:07.949Z,63.40
2022-08-17T17:46:40.702Z,64.00
2022-08-17T17:49:11.202Z,64.30
2022-08-17T17:52:06.348Z,65.50
2022-08-17T17:54:49.172Z,64.80
2022-08-17T17:57:24.703Z,63.30
2022-08-17T18:00:02.227Z,67.00
2022-08-17T18:02:51.758Z,68.20
2022-08-17T18:05:43.910Z,65.70
2022-08-17T18:08:32.112Z,65.70
2022-08-17T18:11:11.416Z,69.20
2022-08-17T18:13:53.519Z,68.80
2022-08-17T18:16:23.513Z,72.50
2022-08-17T18:18:53.576Z,72.00
2022-08-17T18:21:24.607Z,71.80
2022-08-17T18:23:55.736Z,71.80
2022-08-17T18:26:58.735Z,71.30
2022-08-17T18:29:41.596Z,72.50
2022-08-17T18:32:32.862Z,70.50
2022-08-17T18:35:27.754Z,70.10
2022-08-17T18:37:58.783Z,72.70
2022-08-17T18:40:34.265Z,69.50
2022-08-17T18:43:13.041Z,68.80
2022-08-17T18:45:53.391Z,72.80
2022-08-17T18:48:27.963Z,74.90
2022-08-17T18:50:58.854Z,74.30
2022-08-17T18:53:34.646Z,75.10
2022-08-17T18:56:27.969Z,75.00
2022-08-17T18:59:11.101Z,74.70
2022-08-17T19:01:53.288Z,73.30
2022-08-17T19:04:37.061Z,70.00
2022-08-17T19:07:24.681Z,67.60
2022-08-17T19:09:56.980Z,67.70
2022-08-17T19:12:31.725Z,72.00
2022-08-17T19:15:01.618Z,73.10
2022-08-17T19:17:42.549Z,75.50
2022-08-17T19:20:19.777Z,76.00
2022-08-17T19:23:01.582Z,74.40
2022-08-17T19:25:33.633Z,73.30
2022-08-17T19:28:21.515Z,73.20
2022-08-17T19:30:55.763Z,76.30
2022-08-17T19:33:24.315Z,76.50
2022-08-17T19:36:02.189Z,74.90
2022-08-17T19:38:42.906Z,74.80
2022-08-17T19:41:18.787Z,74.50
2022-08-17T19:43:58.869Z,76.00
2022-08-17T19:46:36.350Z,75.60
2022-08-17T19:49:14.737Z,74.00
2022-08-17T19:51:48.821Z,76.30
2022-08-17T19:54:24.798Z,76.30
2022-08-17T19:57:05.909Z,75.90
2022-08-17T19:59:49.110Z,76.90
2022-08-17T20:02:29.610Z,77.80
2022-08-17T20:05:02.772Z,77.90
2022-08-17T20:07:41.925Z,77.40
2022-08-17T20:10:14.671Z,77.10
2022-08-17T20:12:45.400Z,78.30
2022-08-17T20:15:21.851Z,78.10
2022-08-17T20:17:50.601Z,77.00
2022-08-17T20:20:29.731Z,76.80
2022-08-17T20:23:06.788Z,77.00
2022-08-17T20:25:40.353Z,77.70
2022-08-17T20:28:21.111Z,78.40
2022-08-17T20:30:49.190Z,79.50
2022-08-17T20:33:26.449Z,79.50
2022-08-17T20:36:17.721Z,77.90
2022-08-17T20:38:52.206Z,79.30
2022-08-17T20:41:22.526Z,79.80
2022-08-17T20:44:03.577Z,76.80
2022-08-17T20:46:52.689Z,76.90
2022-08-17T20:49:27.145Z,79.80
2022-08-17T20:52:02.418Z,80.90
2022-08-17T20:54:51.401Z,80.40
2022-08-17T20:57:45.689Z,81.20
2022-08-17T21:00:35.408Z,81.20
2022-08-17T21:03:49.138Z,80.50
2022-08-17T21:06:22.064Z,81.20
2022-08-17T21:08:58.023Z,82.30
2022-08-17T21:11:56.766Z,81.40
2022-08-17T21:14:56.471Z,80.60
2022-08-17T21:17:51.600Z,82.60
2022-08-17T21:20:33.189Z,83.00
2022-08-17T21:23:38.450Z,82.50
2022-08-17T21:26:18.660Z,83.50
2022-08-17T21:29:29.523Z,83.50
2022-08-17T21:32:18.503Z,84.00
2022-08-17T21:35:30.417Z,84.70
2022-08-17T21:38:05.149Z,84.40
2022-08-17T21:40:34.962Z,84.50
2022-08-17T21:43:24.106Z,84.50
2022-08-17T21:46:03.568Z,83.80
2022-08-17T21:48:41.372Z,84.50
2022-08-17T21:51:13.253Z,85.50
2022-08-17T21:53:45.859Z,85.70
2022-08-17T21:56:22.105Z,85.40
2022-08-17T21:59:00.317Z,84.70
2022-08-17T22:01:31.605Z,85.70
2022-08-17T22:04:04.334Z,85.80
2022-08-17T22:06:37.589Z,85.20
2022-08-17T22:09:17.340Z,85.70
2022-08-17T22:11:59.961Z,85.90
2022-08-17T22:14:52.888Z,86.50
2022-08-17T22:17:25.403Z,86.40
2022-08-17T22:19:55.873Z,86.60
2022-08-17T22:22:28.136Z,86.40
2022-08-17T22:24:57.996Z,85.60
2022-08-17T22:27:48.684Z,86.60
2022-08-17T22:30:39.357Z,87.00
2022-08-17T22:33:31.986Z,85.30
2022-08-17T22:36:12.354Z,85.70
2022-08-17T22:38:43.634Z,86.80
2022-08-17T22:41:43.606Z,88.00
2022-08-17T22:44:24.704Z,88.30
2022-08-17T22:47:02.590Z,86.70
2022-08-17T22:49:53.566Z,86.50
2022-08-17T22:52:33.287Z,88.30
2022-08-17T22:55:23.770Z,88.50
2022-08-17T22:58:09.786Z,87.50
2022-08-17T23:00:41.119Z,88.90
2022-08-17T23:03:15.777Z,86.80
2022-08-17T23:05:47.842Z,87.40
2022-08-17T23:08:21.357Z,88.00
2022-08-17T23:10:50.304Z,89.30
2022-08-17T23:13:18.450Z,89.50
2022-08-17T23:15:48.174Z,89.30
2022-08-17T23:18:17.859Z,90.00
2022-08-17T23:20:47.835Z,90.20
2022-08-17T23:23:18.012Z,90.20
2022-08-17T23:25:49.401Z,89.80
2022-08-17T23:28:17.500Z,90.00
2022-08-17T23:30:46.645Z,90.20
2022-08-17T23:33:31.903Z,90.20
2022-08-17T23:36:01.966Z,90.20
2022-08-17T23:38:31.922Z,90.40
2022-08-17T23:41:04.424Z,90.40
2022-08-17T23:43:32.679Z,90.70
2022-08-17T23:46:03.622Z,90.70
2022-08-17T23:48:35.592Z,90.40
2022-08-17T23:51:09.538Z,90.40
2022-08-17T23:53:42.015Z,90.80
2022-08-17T23:56:11.671Z,90.80
2022-08-17T23:58:42.212Z,90.80
